sensor_id;sensor_type;location;lat;lon;timestamp;temperature;humidity
23562;DHT22;11959;49.418;8.728;2023-02-11T00:02:02;0.30;99.90
23562;DHT22;11959;49.418;8.728;2023-02-11T00:04:30;0.30;99.90
23562;DHT22;11959;49.418;8.728;2023-02-11T00:06:55;0.30;99.90
23562;DHT22;11959;49.418;8.728;2023-02-11T00:09:21;0.30;99.90
23562;DHT22;11959;49.418;8.728;2023-02-11T00:11:47;0.30;99.90
23562;DHT22;11959;49.418;8.728;2023-02-11T00:14:12;0.30;99.90
23562;DHT22;11959;49.418;8.728;2023-02-11T00:16:38;0.30;99.90
23562;DHT22;11959;49.418;8.728;2023-02-11T00:19:04;0.30;99.90
23562;DHT22;11959;49.418;8.728;2023-02-11T00:21:31;0.40;99.90
23562;DHT22;11959;49.418;8.728;2023-02-11T00:23:57;0.30;99.90
23562;DHT22;11959;49.418;8.728;2023-02-11T00:26:27;0.40;99.90
23562;DHT22;11959;49.418;8.728;2023-02-11T00:28:53;0.40;99.90
23562;DHT22;11959;49.418;8.728;2023-02-11T00:31:20;0.40;99.90
23562;DHT22;11959;49.418;8.728;2023-02-11T00:33:46;0.40;99.90
23562;DHT22;11959;49.418;8.728;2023-02-11T00:36:15;0.40;99.90
23562;DHT22;11959;49.418;8.728;2023-02-11T00:38:45;0.40;99.90
23562;DHT22;11959;49.418;8.728;2023-02-11T00:41:12;0.40;99.90
23562;DHT22;11959;49.418;8.728;2023-02-11T00:43:39;0.40;99.90
23562;DHT22;11959;49.418;8.728;2023-02-11T00:46:05;0.40;99.90
23562;DHT22;11959;49.418;8.728;2023-02-11T00:48:31;0.40;99.90
23562;DHT22;11959;49.418;8.728;2023-02-11T00:50:57;0.50;99.90
23562;DHT22;11959;49.418;8.728;2023-02-11T00:53:23;0.40;99.90
23562;DHT22;11959;49.418;8.728;2023-02-11T00:55:50;0.40;99.90
23562;DHT22;11959;49.418;8.728;2023-02-11T00:58:16;0.40;99.90
23562;DHT22;11959;49.418;8.728;2023-02-11T01:00:41;0.40;99.90
23562;DHT22;11959;49.418;8.728;2023-02-11T01:03:07;0.40;99.90
23562;DHT22;11959;49.418;8.728;2023-02-11T01:05:33;0.40;99.90
23562;DHT22;11959;49.418;8.728;2023-02-11T01:07:58;0.40;99.90
23562;DHT22;11959;49.418;8.728;2023-02-11T01:10:24;0.40;99.90
23562;DHT22;11959;49.418;8.728;2023-02-11T01:12:50;0.40;99.90
23562;DHT22;11959;49.418;8.728;2023-02-11T01:15:17;0.40;99.90
23562;DHT22;11959;49.418;8.728;2023-02-11T01:17:44;0.40;99.90
23562;DHT22;11959;49.418;8.728;2023-02-11T01:20:16;0.40;99.90
23562;DHT22;11959;49.418;8.728;2023-02-11T01:22:42;0.40;99.90
23562;DHT22;11959;49.418;8.728;2023-02-11T01:25:08;0.40;99.90
23562;DHT22;11959;49.418;8.728;2023-02-11T01:27:33;0.40;99.90
23562;DHT22;11959;49.418;8.728;2023-02-11T01:30:00;0.40;99.90
23562;DHT22;11959;49.418;8.728;2023-02-11T01:32:26;0.40;99.90
23562;DHT22;11959;49.418;8.728;2023-02-11T01:34:52;0.40;99.90
23562;DHT22;11959;49.418;8.728;2023-02-11T01:37:18;0.40;99.90
23562;DHT22;11959;49.418;8.728;2023-02-11T01:39:43;0.40;99.90
23562;DHT22;11959;49.418;8.728;2023-02-11T01:42:15;0.40;99.90
23562;DHT22;11959;49.418;8.728;2023-02-11T01:44:41;0.50;99.90
23562;DHT22;11959;49.418;8.728;2023-02-11T01:47:06;0.50;99.90
23562;DHT22;11959;49.418;8.728;2023-02-11T01:49:35;0.60;99.90
23562;DHT22;11959;49.418;8.728;2023-02-11T01:52:31;0.60;99.90
23562;DHT22;11959;49.418;8.728;2023-02-11T01:55:03;0.60;99.90
23562;DHT22;11959;49.418;8.728;2023-02-11T01:57:51;0.70;99.90
23562;DHT22;11959;49.418;8.728;2023-02-11T02:00:33;0.70;99.90
23562;DHT22;11959;49.418;8.728;2023-02-11T02:03:18;0.80;99.90
23562;DHT22;11959;49.418;8.728;2023-02-11T02:10:59;0.80;99.90
23562;DHT22;11959;49.418;8.728;2023-02-11T02:13:27;0.70;99.90
23562;DHT22;11959;49.418;8.728;2023-02-11T02:15:56;0.80;99.90
23562;DHT22;11959;49.418;8.728;2023-02-11T02:32:17;0.90;99.90
23562;DHT22;11959;49.418;8.728;2023-02-11T02:37:36;0.90;99.90
23562;DHT22;11959;49.418;8.728;2023-02-11T02:40:08;1.00;99.90
23562;DHT22;11959;49.418;8.728;2023-02-11T02:42:37;1.00;99.90
23562;DHT22;11959;49.418;8.728;2023-02-11T02:45:06;0.90;99.90
23562;DHT22;11959;49.418;8.728;2023-02-11T02:47:33;0.80;99.90
23562;DHT22;11959;49.418;8.728;2023-02-11T02:49:59;0.90;99.90
23562;DHT22;11959;49.418;8.728;2023-02-11T02:52:31;0.80;99.90
23562;DHT22;11959;49.418;8.728;2023-02-11T03:03:24;0.80;99.90
23562;DHT22;11959;49.418;8.728;2023-02-11T03:06:33;0.80;99.90
23562;DHT22;11959;49.418;8.728;2023-02-11T03:12:03;0.80;99.90
23562;DHT22;11959;49.418;8.728;2023-02-11T03:14:31;0.80;99.90
23562;DHT22;11959;49.418;8.728;2023-02-11T03:16:58;0.80;99.90
23562;DHT22;11959;49.418;8.728;2023-02-11T03:19:29;0.90;99.90
23562;DHT22;11959;49.418;8.728;2023-02-11T03:21:55;0.90;99.90
23562;DHT22;11959;49.418;8.728;2023-02-11T03:24:30;0.80;99.90
23562;DHT22;11959;49.418;8.728;2023-02-11T03:27:03;0.80;99.90
23562;DHT22;11959;49.418;8.728;2023-02-11T03:29:50;0.90;99.90
23562;DHT22;11959;49.418;8.728;2023-02-11T03:34:59;0.90;99.90
23562;DHT22;11959;49.418;8.728;2023-02-11T03:37:36;0.90;99.90
23562;DHT22;11959;49.418;8.728;2023-02-11T03:40:09;0.90;99.90
23562;DHT22;11959;49.418;8.728;2023-02-11T03:42:50;0.90;99.90
23562;DHT22;11959;49.418;8.728;2023-02-11T03:45:19;0.90;99.90
23562;DHT22;11959;49.418;8.728;2023-02-11T03:47:54;0.90;99.90
23562;DHT22;11959;49.418;8.728;2023-02-11T03:50:21;0.90;99.90
23562;DHT22;11959;49.418;8.728;2023-02-11T03:52:48;0.90;99.90
23562;DHT22;11959;49.418;8.728;2023-02-11T03:55:16;0.90;99.90
23562;DHT22;11959;49.418;8.728;2023-02-11T03:57:42;0.90;99.90
23562;DHT22;11959;49.418;8.728;2023-02-11T04:00:09;0.90;99.90
23562;DHT22;11959;49.418;8.728;2023-02-11T04:02:36;0.90;99.90
23562;DHT22;11959;49.418;8.728;2023-02-11T04:05:03;0.90;99.90
23562;DHT22;11959;49.418;8.728;2023-02-11T04:07:29;0.90;99.90
23562;DHT22;11959;49.418;8.728;2023-02-11T04:09:55;0.90;99.90
23562;DHT22;11959;49.418;8.728;2023-02-11T04:12:22;1.00;99.90
23562;DHT22;11959;49.418;8.728;2023-02-11T04:14:47;0.90;99.90
23562;DHT22;11959;49.418;8.728;2023-02-11T04:17:13;0.90;99.90
23562;DHT22;11959;49.418;8.728;2023-02-11T04:19:39;1.00;99.90
23562;DHT22;11959;49.418;8.728;2023-02-11T04:22:04;1.00;99.90
23562;DHT22;11959;49.418;8.728;2023-02-11T04:24:30;1.00;99.90
23562;DHT22;11959;49.418;8.728;2023-02-11T04:26:56;1.00;99.90
23562;DHT22;11959;49.418;8.728;2023-02-11T04:29:22;1.00;99.90
23562;DHT22;11959;49.418;8.728;2023-02-11T04:31:48;1.10;99.90
23562;DHT22;11959;49.418;8.728;2023-02-11T04:34:14;1.10;99.90
23562;DHT22;11959;49.418;8.728;2023-02-11T04:36:40;1.10;99.90
23562;DHT22;11959;49.418;8.728;2023-02-11T04:39:06;1.10;99.90
23562;DHT22;11959;49.418;8.728;2023-02-11T04:41:32;1.10;99.90
23562;DHT22;11959;49.418;8.728;2023-02-11T04:43:57;1.10;99.90
23562;DHT22;11959;49.418;8.728;2023-02-11T04:46:23;1.10;99.90
23562;DHT22;11959;49.418;8.728;2023-02-11T04:48:49;1.10;99.90
23562;DHT22;11959;49.418;8.728;2023-02-11T04:51:15;1.10;99.90
23562;DHT22;11959;49.418;8.728;2023-02-11T04:53:40;1.10;99.90
23562;DHT22;11959;49.418;8.728;2023-02-11T04:56:06;1.10;99.90
23562;DHT22;11959;49.418;8.728;2023-02-11T04:58:32;1.10;99.90
23562;DHT22;11959;49.418;8.728;2023-02-11T05:01:08;1.00;99.90
23562;DHT22;11959;49.418;8.728;2023-02-11T05:03:35;1.10;99.90
23562;DHT22;11959;49.418;8.728;2023-02-11T05:06:01;1.10;99.90
23562;DHT22;11959;49.418;8.728;2023-02-11T05:08:26;1.20;99.90
23562;DHT22;11959;49.418;8.728;2023-02-11T05:10:52;1.10;99.90
23562;DHT22;11959;49.418;8.728;2023-02-11T05:13:18;1.20;99.90
23562;DHT22;11959;49.418;8.728;2023-02-11T05:15:43;1.20;99.90
23562;DHT22;11959;49.418;8.728;2023-02-11T05:18:09;1.10;99.90
23562;DHT22;11959;49.418;8.728;2023-02-11T05:20:37;1.10;99.90
23562;DHT22;11959;49.418;8.728;2023-02-11T05:23:03;1.10;99.90
23562;DHT22;11959;49.418;8.728;2023-02-11T05:25:29;1.20;99.90
23562;DHT22;11959;49.418;8.728;2023-02-11T05:27:54;1.20;99.90
23562;DHT22;11959;49.418;8.728;2023-02-11T05:30:20;1.10;99.90
23562;DHT22;11959;49.418;8.728;2023-02-11T05:32:46;1.20;99.90
23562;DHT22;11959;49.418;8.728;2023-02-11T05:35:11;1.10;99.90
23562;DHT22;11959;49.418;8.728;2023-02-11T05:37:37;1.00;99.90
23562;DHT22;11959;49.418;8.728;2023-02-11T05:40:03;1.00;99.90
23562;DHT22;11959;49.418;8.728;2023-02-11T05:42:29;1.00;99.90
23562;DHT22;11959;49.418;8.728;2023-02-11T05:44:54;1.00;99.90
23562;DHT22;11959;49.418;8.728;2023-02-11T05:47:20;1.10;99.90
23562;DHT22;11959;49.418;8.728;2023-02-11T05:49:46;1.10;99.90
23562;DHT22;11959;49.418;8.728;2023-02-11T05:52:11;1.10;99.90
23562;DHT22;11959;49.418;8.728;2023-02-11T05:54:37;1.10;99.90
23562;DHT22;11959;49.418;8.728;2023-02-11T05:57:02;1.10;99.90
23562;DHT22;11959;49.418;8.728;2023-02-11T05:59:28;1.10;99.90
23562;DHT22;11959;49.418;8.728;2023-02-11T06:01:54;1.10;99.90
23562;DHT22;11959;49.418;8.728;2023-02-11T06:04:19;1.10;99.90
23562;DHT22;11959;49.418;8.728;2023-02-11T06:06:45;1.10;99.90
23562;DHT22;11959;49.418;8.728;2023-02-11T06:09:11;1.10;99.90
23562;DHT22;11959;49.418;8.728;2023-02-11T06:11:37;1.10;99.90
23562;DHT22;11959;49.418;8.728;2023-02-11T06:14:02;1.10;99.90
23562;DHT22;11959;49.418;8.728;2023-02-11T06:16:28;1.10;99.90
23562;DHT22;11959;49.418;8.728;2023-02-11T06:18:53;1.10;99.90
23562;DHT22;11959;49.418;8.728;2023-02-11T06:21:19;1.00;99.90
23562;DHT22;11959;49.418;8.728;2023-02-11T06:23:45;1.00;99.90
23562;DHT22;11959;49.418;8.728;2023-02-11T06:26:17;1.00;99.90
23562;DHT22;11959;49.418;8.728;2023-02-11T06:28:43;1.00;99.90
23562;DHT22;11959;49.418;8.728;2023-02-11T06:31:09;1.00;99.90
23562;DHT22;11959;49.418;8.728;2023-02-11T06:33:36;1.00;99.90
23562;DHT22;11959;49.418;8.728;2023-02-11T06:36:03;1.00;99.90
23562;DHT22;11959;49.418;8.728;2023-02-11T06:38:29;1.00;99.90
23562;DHT22;11959;49.418;8.728;2023-02-11T06:40:55;1.00;99.90
23562;DHT22;11959;49.418;8.728;2023-02-11T06:43:21;1.00;99.90
23562;DHT22;11959;49.418;8.728;2023-02-11T06:45:52;0.90;99.90
23562;DHT22;11959;49.418;8.728;2023-02-11T06:48:19;0.90;99.90
23562;DHT22;11959;49.418;8.728;2023-02-11T06:50:44;0.90;99.90
23562;DHT22;11959;49.418;8.728;2023-02-11T06:53:10;0.90;99.90
23562;DHT22;11959;49.418;8.728;2023-02-11T06:55:35;0.90;99.90
23562;DHT22;11959;49.418;8.728;2023-02-11T06:58:01;0.90;99.90
23562;DHT22;11959;49.418;8.728;2023-02-11T07:00:27;0.80;99.90
23562;DHT22;11959;49.418;8.728;2023-02-11T07:02:54;0.80;99.90
23562;DHT22;11959;49.418;8.728;2023-02-11T07:05:19;0.80;99.90
23562;DHT22;11959;49.418;8.728;2023-02-11T07:07:45;0.80;99.90
23562;DHT22;11959;49.418;8.728;2023-02-11T07:10:11;0.80;99.90
23562;DHT22;11959;49.418;8.728;2023-02-11T07:12:37;0.80;99.90
23562;DHT22;11959;49.418;8.728;2023-02-11T07:15:03;0.80;99.90
23562;DHT22;11959;49.418;8.728;2023-02-11T07:17:29;0.80;99.90
23562;DHT22;11959;49.418;8.728;2023-02-11T07:19:54;0.80;99.90
23562;DHT22;11959;49.418;8.728;2023-02-11T07:22:20;0.70;99.90
23562;DHT22;11959;49.418;8.728;2023-02-11T07:24:46;0.70;99.90
23562;DHT22;11959;49.418;8.728;2023-02-11T07:27:11;0.70;99.90
23562;DHT22;11959;49.418;8.728;2023-02-11T07:29:37;0.80;99.90
23562;DHT22;11959;49.418;8.728;2023-02-11T07:32:05;0.80;99.90
23562;DHT22;11959;49.418;8.728;2023-02-11T07:34:30;0.80;99.90
23562;DHT22;11959;49.418;8.728;2023-02-11T07:36:57;0.80;99.90
23562;DHT22;11959;49.418;8.728;2023-02-11T07:39:22;0.80;99.90
23562;DHT22;11959;49.418;8.728;2023-02-11T07:41:54;0.80;99.90
23562;DHT22;11959;49.418;8.728;2023-02-11T07:44:20;0.90;99.90
23562;DHT22;11959;49.418;8.728;2023-02-11T07:46:46;0.90;99.90
23562;DHT22;11959;49.418;8.728;2023-02-11T07:49:13;0.90;99.90
23562;DHT22;11959;49.418;8.728;2023-02-11T07:51:39;0.90;99.90
23562;DHT22;11959;49.418;8.728;2023-02-11T07:54:05;0.90;99.90
23562;DHT22;11959;49.418;8.728;2023-02-11T07:56:31;0.90;99.90
23562;DHT22;11959;49.418;8.728;2023-02-11T07:59:02;0.90;99.90
23562;DHT22;11959;49.418;8.728;2023-02-11T08:01:28;0.90;99.90
23562;DHT22;11959;49.418;8.728;2023-02-11T08:03:55;0.90;99.90
23562;DHT22;11959;49.418;8.728;2023-02-11T08:06:23;1.00;99.90
23562;DHT22;11959;49.418;8.728;2023-02-11T08:08:49;1.00;99.90
23562;DHT22;11959;49.418;8.728;2023-02-11T08:11:20;1.00;99.90
23562;DHT22;11959;49.418;8.728;2023-02-11T08:13:46;1.00;99.90
23562;DHT22;11959;49.418;8.728;2023-02-11T08:16:30;1.00;99.90
23562;DHT22;11959;49.418;8.728;2023-02-11T08:18:58;1.10;99.90
23562;DHT22;11959;49.418;8.728;2023-02-11T08:21:25;1.10;99.90
23562;DHT22;11959;49.418;8.728;2023-02-11T08:23:51;1.20;99.90
23562;DHT22;11959;49.418;8.728;2023-02-11T08:26:19;1.20;99.90
23562;DHT22;11959;49.418;8.728;2023-02-11T08:28:47;1.20;99.90
23562;DHT22;11959;49.418;8.728;2023-02-11T08:31:18;1.40;99.90
23562;DHT22;11959;49.418;8.728;2023-02-11T08:33:44;1.40;99.90
23562;DHT22;11959;49.418;8.728;2023-02-11T08:36:13;1.50;99.90
23562;DHT22;11959;49.418;8.728;2023-02-11T08:38:39;1.70;99.90
23562;DHT22;11959;49.418;8.728;2023-02-11T08:41:05;1.70;99.90
23562;DHT22;11959;49.418;8.728;2023-02-11T08:43:31;2.00;99.90
23562;DHT22;11959;49.418;8.728;2023-02-11T08:45:57;2.00;99.90
23562;DHT22;11959;49.418;8.728;2023-02-11T08:48:23;2.30;99.90
23562;DHT22;11959;49.418;8.728;2023-02-11T08:50:49;2.40;99.90
23562;DHT22;11959;49.418;8.728;2023-02-11T08:53:14;2.50;99.90
23562;DHT22;11959;49.418;8.728;2023-02-11T08:55:47;2.60;99.90
23562;DHT22;11959;49.418;8.728;2023-02-11T08:58:13;2.70;99.90
23562;DHT22;11959;49.418;8.728;2023-02-11T09:00:38;2.70;99.90
23562;DHT22;11959;49.418;8.728;2023-02-11T09:03:04;2.70;99.90
23562;DHT22;11959;49.418;8.728;2023-02-11T09:05:30;2.80;99.90
23562;DHT22;11959;49.418;8.728;2023-02-11T09:07:55;2.80;99.90
23562;DHT22;11959;49.418;8.728;2023-02-11T09:10:21;2.80;99.90
23562;DHT22;11959;49.418;8.728;2023-02-11T09:12:46;2.90;99.90
23562;DHT22;11959;49.418;8.728;2023-02-11T09:15:12;2.90;99.90
23562;DHT22;11959;49.418;8.728;2023-02-11T09:17:38;2.90;99.90
23562;DHT22;11959;49.418;8.728;2023-02-11T09:20:03;2.90;99.90
23562;DHT22;11959;49.418;8.728;2023-02-11T09:22:29;3.00;99.90
23562;DHT22;11959;49.418;8.728;2023-02-11T09:24:55;3.00;99.90
23562;DHT22;11959;49.418;8.728;2023-02-11T09:27:20;3.00;99.90
23562;DHT22;11959;49.418;8.728;2023-02-11T09:29:46;3.10;99.90
23562;DHT22;11959;49.418;8.728;2023-02-11T09:32:12;3.10;99.90
23562;DHT22;11959;49.418;8.728;2023-02-11T09:34:37;3.20;99.90
23562;DHT22;11959;49.418;8.728;2023-02-11T09:37:03;3.20;99.90
23562;DHT22;11959;49.418;8.728;2023-02-11T09:39:29;3.30;99.90
23562;DHT22;11959;49.418;8.728;2023-02-11T09:45:16;3.40;99.90
23562;DHT22;11959;49.418;8.728;2023-02-11T09:47:53;3.50;99.90
23562;DHT22;11959;49.418;8.728;2023-02-11T09:50:36;3.60;99.90
23562;DHT22;11959;49.418;8.728;2023-02-11T09:53:30;3.70;99.90
23562;DHT22;11959;49.418;8.728;2023-02-11T09:56:02;3.90;99.90
23562;DHT22;11959;49.418;8.728;2023-02-11T09:58:34;4.00;99.90
23562;DHT22;11959;49.418;8.728;2023-02-11T10:01:38;4.10;99.90
23562;DHT22;11959;49.418;8.728;2023-02-11T10:15:41;4.70;99.90
23562;DHT22;11959;49.418;8.728;2023-02-11T10:23:49;4.90;99.90
23562;DHT22;11959;49.418;8.728;2023-02-11T10:26:17;5.00;99.90
23562;DHT22;11959;49.418;8.728;2023-02-11T10:28:45;5.10;99.90
23562;DHT22;11959;49.418;8.728;2023-02-11T10:31:27;5.20;99.90
23562;DHT22;11959;49.418;8.728;2023-02-11T10:34:05;5.30;99.90
23562;DHT22;11959;49.418;8.728;2023-02-11T10:36:37;5.30;99.90
23562;DHT22;11959;49.418;8.728;2023-02-11T10:39:21;5.30;99.90
23562;DHT22;11959;49.418;8.728;2023-02-11T10:41:54;5.30;99.90
23562;DHT22;11959;49.418;8.728;2023-02-11T10:44:33;5.40;99.90
23562;DHT22;11959;49.418;8.728;2023-02-11T10:47:14;5.50;99.90
23562;DHT22;11959;49.418;8.728;2023-02-11T10:49:44;5.50;99.90
23562;DHT22;11959;49.418;8.728;2023-02-11T10:52:27;5.60;99.90
23562;DHT22;11959;49.418;8.728;2023-02-11T10:54:59;5.60;99.90
23562;DHT22;11959;49.418;8.728;2023-02-11T10:57:38;5.70;99.90
23562;DHT22;11959;49.418;8.728;2023-02-11T11:00:32;5.80;99.90
23562;DHT22;11959;49.418;8.728;2023-02-11T11:03:02;6.00;99.90
23562;DHT22;11959;49.418;8.728;2023-02-11T11:05:35;6.00;99.90
23562;DHT22;11959;49.418;8.728;2023-02-11T11:08:05;6.00;99.90
23562;DHT22;11959;49.418;8.728;2023-02-11T11:10:45;6.00;99.90
23562;DHT22;11959;49.418;8.728;2023-02-11T11:13:32;6.10;99.90
23562;DHT22;11959;49.418;8.728;2023-02-11T11:18:42;6.10;99.90
23562;DHT22;11959;49.418;8.728;2023-02-11T11:23:54;6.20;99.90
23562;DHT22;11959;49.418;8.728;2023-02-11T11:26:21;6.20;99.90
23562;DHT22;11959;49.418;8.728;2023-02-11T11:28:57;6.20;99.90
23562;DHT22;11959;49.418;8.728;2023-02-11T11:31:33;6.30;99.90
23562;DHT22;11959;49.418;8.728;2023-02-11T11:34:02;6.30;99.90
23562;DHT22;11959;49.418;8.728;2023-02-11T11:36:34;6.30;99.90
23562;DHT22;11959;49.418;8.728;2023-02-11T11:39:16;6.30;99.90
23562;DHT22;11959;49.418;8.728;2023-02-11T11:41:57;6.40;99.90
23562;DHT22;11959;49.418;8.728;2023-02-11T11:44:31;6.40;99.90
23562;DHT22;11959;49.418;8.728;2023-02-11T11:47:26;6.40;99.90
23562;DHT22;11959;49.418;8.728;2023-02-11T11:55:44;6.40;99.90
23562;DHT22;11959;49.418;8.728;2023-02-11T11:58:21;6.40;99.90
23562;DHT22;11959;49.418;8.728;2023-02-11T12:00:51;6.50;99.90
23562;DHT22;11959;49.418;8.728;2023-02-11T12:03:51;6.50;99.90
23562;DHT22;11959;49.418;8.728;2023-02-11T12:06:41;6.60;99.90
23562;DHT22;11959;49.418;8.728;2023-02-11T12:11:56;6.60;99.90
23562;DHT22;11959;49.418;8.728;2023-02-11T12:15:04;6.70;99.90
23562;DHT22;11959;49.418;8.728;2023-02-11T12:21:23;6.70;99.90
23562;DHT22;11959;49.418;8.728;2023-02-11T12:28:59;6.70;99.90
23562;DHT22;11959;49.418;8.728;2023-02-11T12:31:55;6.70;99.90
23562;DHT22;11959;49.418;8.728;2023-02-11T12:42:38;6.80;99.90
23562;DHT22;11959;49.418;8.728;2023-02-11T12:56:27;6.90;99.90
23562;DHT22;11959;49.418;8.728;2023-02-11T12:58:56;7.00;99.90
23562;DHT22;11959;49.418;8.728;2023-02-11T13:01:28;7.00;99.90
23562;DHT22;11959;49.418;8.728;2023-02-11T13:06:39;7.20;99.90
23562;DHT22;11959;49.418;8.728;2023-02-11T13:09:13;7.20;99.90
23562;DHT22;11959;49.418;8.728;2023-02-11T13:11:46;7.30;99.90
23562;DHT22;11959;49.418;8.728;2023-02-11T13:14:32;7.40;99.90
23562;DHT22;11959;49.418;8.728;2023-02-11T13:17:00;7.40;99.90
23562;DHT22;11959;49.418;8.728;2023-02-11T13:19:40;7.50;99.90
23562;DHT22;11959;49.418;8.728;2023-02-11T13:22:25;7.60;99.90
23562;DHT22;11959;49.418;8.728;2023-02-11T13:27:53;7.60;99.90
23562;DHT22;11959;49.418;8.728;2023-02-11T13:35:40;7.50;99.90
23562;DHT22;11959;49.418;8.728;2023-02-11T13:38:20;7.60;99.90
23562;DHT22;11959;49.418;8.728;2023-02-11T13:41:02;7.50;99.90
23562;DHT22;11959;49.418;8.728;2023-02-11T13:43:31;7.60;99.90
23562;DHT22;11959;49.418;8.728;2023-02-11T13:46:09;7.60;99.90
23562;DHT22;11959;49.418;8.728;2023-02-11T13:48:50;7.60;99.90
23562;DHT22;11959;49.418;8.728;2023-02-11T13:51:35;7.60;99.90
23562;DHT22;11959;49.418;8.728;2023-02-11T13:54:02;7.60;99.90
23562;DHT22;11959;49.418;8.728;2023-02-11T13:56:35;7.60;99.90
23562;DHT22;11959;49.418;8.728;2023-02-11T13:59:03;7.60;99.90
23562;DHT22;11959;49.418;8.728;2023-02-11T14:04:32;7.60;99.90
23562;DHT22;11959;49.418;8.728;2023-02-11T14:13:27;7.60;99.90
23562;DHT22;11959;49.418;8.728;2023-02-11T14:16:17;7.60;99.90
23562;DHT22;11959;49.418;8.728;2023-02-11T14:26:53;7.50;99.90
23562;DHT22;11959;49.418;8.728;2023-02-11T14:29:32;7.50;99.90
23562;DHT22;11959;49.418;8.728;2023-02-11T14:34:52;7.50;99.90
23562;DHT22;11959;49.418;8.728;2023-02-11T14:40:17;7.40;99.90
23562;DHT22;11959;49.418;8.728;2023-02-11T14:42:45;7.40;99.90
23562;DHT22;11959;49.418;8.728;2023-02-11T14:45:17;7.40;99.90
23562;DHT22;11959;49.418;8.728;2023-02-11T14:48:02;7.40;99.90
23562;DHT22;11959;49.418;8.728;2023-02-11T14:50:50;7.40;99.90
23562;DHT22;11959;49.418;8.728;2023-02-11T14:53:20;7.40;99.90
23562;DHT22;11959;49.418;8.728;2023-02-11T14:55:48;7.30;99.90
23562;DHT22;11959;49.418;8.728;2023-02-11T14:58:23;7.30;99.90
23562;DHT22;11959;49.418;8.728;2023-02-11T15:03:35;7.30;99.90
23562;DHT22;11959;49.418;8.728;2023-02-11T15:06:27;7.30;99.90
23562;DHT22;11959;49.418;8.728;2023-02-11T15:08:54;7.20;99.90
23562;DHT22;11959;49.418;8.728;2023-02-11T15:11:23;7.20;99.90
23562;DHT22;11959;49.418;8.728;2023-02-11T15:13:50;7.20;99.90
23562;DHT22;11959;49.418;8.728;2023-02-11T15:16:22;7.20;99.90
23562;DHT22;11959;49.418;8.728;2023-02-11T15:18:54;7.10;99.90
23562;DHT22;11959;49.418;8.728;2023-02-11T15:21:26;7.10;99.90
23562;DHT22;11959;49.418;8.728;2023-02-11T15:24:19;7.10;99.90
23562;DHT22;11959;49.418;8.728;2023-02-11T15:27:02;7.10;99.90
23562;DHT22;11959;49.418;8.728;2023-02-11T15:29:35;7.10;99.90
23562;DHT22;11959;49.418;8.728;2023-02-11T15:32:11;7.00;99.90
23562;DHT22;11959;49.418;8.728;2023-02-11T15:34:37;7.00;99.90
23562;DHT22;11959;49.418;8.728;2023-02-11T15:37:03;6.90;99.90
23562;DHT22;11959;49.418;8.728;2023-02-11T15:39:37;6.90;99.90
23562;DHT22;11959;49.418;8.728;2023-02-11T15:42:28;6.90;99.90
23562;DHT22;11959;49.418;8.728;2023-02-11T15:47:37;6.80;99.90
23562;DHT22;11959;49.418;8.728;2023-02-11T15:50:04;6.80;99.90
23562;DHT22;11959;49.418;8.728;2023-02-11T15:52:30;6.80;99.90
23562;DHT22;11959;49.418;8.728;2023-02-11T15:54:58;6.70;99.90
23562;DHT22;11959;49.418;8.728;2023-02-11T15:57:26;6.70;99.90
23562;DHT22;11959;49.418;8.728;2023-02-11T15:59:53;6.60;99.90
23562;DHT22;11959;49.418;8.728;2023-02-11T16:02:24;6.60;99.90
23562;DHT22;11959;49.418;8.728;2023-02-11T16:04:57;6.60;99.90
23562;DHT22;11959;49.418;8.728;2023-02-11T16:07:42;6.50;99.90
23562;DHT22;11959;49.418;8.728;2023-02-11T16:10:32;6.50;99.90
23562;DHT22;11959;49.418;8.728;2023-02-11T16:18:54;6.40;99.90
23562;DHT22;11959;49.418;8.728;2023-02-11T16:21:00;6.30;99.90
23562;DHT22;11959;49.418;8.728;2023-02-11T16:23:38;6.30;99.90
23562;DHT22;11959;49.418;8.728;2023-02-11T16:26:20;6.30;99.90
23562;DHT22;11959;49.418;8.728;2023-02-11T16:28:47;6.30;99.90
23562;DHT22;11959;49.418;8.728;2023-02-11T16:31:12;6.30;99.90
23562;DHT22;11959;49.418;8.728;2023-02-11T16:33:38;6.20;99.90
23562;DHT22;11959;49.418;8.728;2023-02-11T16:36:14;6.20;99.90
23562;DHT22;11959;49.418;8.728;2023-02-11T16:38:43;6.20;99.90
23562;DHT22;11959;49.418;8.728;2023-02-11T16:41:08;6.20;99.90
23562;DHT22;11959;49.418;8.728;2023-02-11T16:43:37;6.20;99.90
23562;DHT22;11959;49.418;8.728;2023-02-11T16:46:03;6.20;99.90
23562;DHT22;11959;49.418;8.728;2023-02-11T16:48:29;6.20;99.90
23562;DHT22;11959;49.418;8.728;2023-02-11T16:50:56;6.20;99.90
23562;DHT22;11959;49.418;8.728;2023-02-11T16:53:23;6.20;99.90
23562;DHT22;11959;49.418;8.728;2023-02-11T16:55:51;6.20;99.90
23562;DHT22;11959;49.418;8.728;2023-02-11T16:58:17;6.20;99.90
23562;DHT22;11959;49.418;8.728;2023-02-11T17:00:44;6.20;99.90
23562;DHT22;11959;49.418;8.728;2023-02-11T17:03:19;6.20;99.90
23562;DHT22;11959;49.418;8.728;2023-02-11T17:05:46;6.20;99.90
23562;DHT22;11959;49.418;8.728;2023-02-11T17:08:12;6.30;99.90
23562;DHT22;11959;49.418;8.728;2023-02-11T17:10:38;6.30;99.90
23562;DHT22;11959;49.418;8.728;2023-02-11T17:13:04;6.20;99.90
23562;DHT22;11959;49.418;8.728;2023-02-11T17:15:30;6.30;99.90
23562;DHT22;11959;49.418;8.728;2023-02-11T17:17:57;6.20;99.90
23562;DHT22;11959;49.418;8.728;2023-02-11T17:20:23;6.20;99.90
23562;DHT22;11959;49.418;8.728;2023-02-11T17:22:49;6.20;99.90
23562;DHT22;11959;49.418;8.728;2023-02-11T17:25:16;6.20;99.90
23562;DHT22;11959;49.418;8.728;2023-02-11T17:27:42;6.20;99.90
23562;DHT22;11959;49.418;8.728;2023-02-11T17:30:08;6.30;99.90
23562;DHT22;11959;49.418;8.728;2023-02-11T17:32:35;6.30;99.90
23562;DHT22;11959;49.418;8.728;2023-02-11T17:35:01;6.40;99.90
23562;DHT22;11959;49.418;8.728;2023-02-11T17:37:27;6.40;99.90
23562;DHT22;11959;49.418;8.728;2023-02-11T17:39:53;6.40;99.90
23562;DHT22;11959;49.418;8.728;2023-02-11T17:42:18;6.40;99.90
23562;DHT22;11959;49.418;8.728;2023-02-11T17:44:44;6.40;99.90
23562;DHT22;11959;49.418;8.728;2023-02-11T17:47:11;6.50;99.90
23562;DHT22;11959;49.418;8.728;2023-02-11T17:49:37;6.50;99.90
23562;DHT22;11959;49.418;8.728;2023-02-11T17:52:03;6.40;99.90
23562;DHT22;11959;49.418;8.728;2023-02-11T17:54:29;6.40;99.90
23562;DHT22;11959;49.418;8.728;2023-02-11T17:56:54;6.40;99.90
23562;DHT22;11959;49.418;8.728;2023-02-11T17:59:20;6.40;99.90
23562;DHT22;11959;49.418;8.728;2023-02-11T18:01:46;6.40;99.90
23562;DHT22;11959;49.418;8.728;2023-02-11T18:04:14;6.30;99.90
23562;DHT22;11959;49.418;8.728;2023-02-11T18:06:40;6.30;99.90
23562;DHT22;11959;49.418;8.728;2023-02-11T18:09:05;6.30;99.90
23562;DHT22;11959;49.418;8.728;2023-02-11T18:11:32;6.30;99.90
23562;DHT22;11959;49.418;8.728;2023-02-11T18:14:02;6.30;99.90
23562;DHT22;11959;49.418;8.728;2023-02-11T18:16:29;6.30;99.90
23562;DHT22;11959;49.418;8.728;2023-02-11T18:18:56;6.30;99.90
23562;DHT22;11959;49.418;8.728;2023-02-11T18:21:23;6.20;99.90
23562;DHT22;11959;49.418;8.728;2023-02-11T18:23:49;6.30;99.90
23562;DHT22;11959;49.418;8.728;2023-02-11T18:26:16;6.20;99.90